sensor_id;sensor_type;location;lat;lon;timestamp;P1;durP1;ratioP1;P2;durP2;ratioP2
21330;SDS011;10824;51.632;4.950;2023-06-05T00:00:37;2.50;;;1.60;;
21330;SDS011;10824;51.632;4.950;2023-06-05T00:03:04;1.50;;;1.30;;
21330;SDS011;10824;51.632;4.950;2023-06-05T00:05:31;2.97;;;1.20;;
21330;SDS011;10824;51.632;4.950;2023-06-05T00:07:58;2.67;;;1.10;;
21330;SDS011;10824;51.632;4.950;2023-06-05T00:10:25;2.58;;;1.50;;
21330;SDS011;10824;51.632;4.950;2023-06-05T00:12:54;3.15;;;1.08;;
21330;SDS011;10824;51.632;4.950;2023-06-05T00:15:21;3.20;;;1.70;;
21330;SDS011;10824;51.632;4.950;2023-06-05T00:17:48;1.80;;;0.95;;
21330;SDS011;10824;51.632;4.950;2023-06-05T00:20:15;2.42;;;1.00;;
21330;SDS011;10824;51.632;4.950;2023-06-05T00:22:42;1.80;;;1.10;;
21330;SDS011;10824;51.632;4.950;2023-06-05T00:25:14;2.10;;;1.00;;
21330;SDS011;10824;51.632;4.950;2023-06-05T00:27:41;4.03;;;1.27;;
21330;SDS011;10824;51.632;4.950;2023-06-05T00:30:09;4.63;;;1.20;;
21330;SDS011;10824;51.632;4.950;2023-06-05T00:32:36;3.67;;;1.13;;
21330;SDS011;10824;51.632;4.950;2023-06-05T00:35:05;2.10;;;1.35;;
21330;SDS011;10824;51.632;4.950;2023-06-05T00:37:33;2.83;;;1.10;;
21330;SDS011;10824;51.632;4.950;2023-06-05T00:40:00;2.53;;;1.08;;
21330;SDS011;10824;51.632;4.950;2023-06-05T00:42:28;2.45;;;1.25;;
21330;SDS011;10824;51.632;4.950;2023-06-05T00:44:55;5.20;;;2.35;;
21330;SDS011;10824;51.632;4.950;2023-06-05T00:47:23;7.85;;;1.73;;
21330;SDS011;10824;51.632;4.950;2023-06-05T00:49:50;4.10;;;1.30;;
21330;SDS011;10824;51.632;4.950;2023-06-05T00:52:17;3.35;;;1.35;;
21330;SDS011;10824;51.632;4.950;2023-06-05T00:54:45;2.60;;;1.10;;
21330;SDS011;10824;51.632;4.950;2023-06-05T00:57:12;4.05;;;1.20;;
21330;SDS011;10824;51.632;4.950;2023-06-05T00:59:39;4.78;;;1.20;;
21330;SDS011;10824;51.632;4.950;2023-06-05T01:02:11;3.05;;;1.42;;
21330;SDS011;10824;51.632;4.950;2023-06-05T01:04:42;2.67;;;1.23;;
21330;SDS011;10824;51.632;4.950;2023-06-05T01:07:11;3.03;;;1.90;;
21330;SDS011;10824;51.632;4.950;2023-06-05T01:09:40;2.10;;;1.20;;
21330;SDS011;10824;51.632;4.950;2023-06-05T01:12:11;2.92;;;1.45;;
21330;SDS011;10824;51.632;4.950;2023-06-05T01:14:48;3.10;;;1.33;;
21330;SDS011;10824;51.632;4.950;2023-06-05T01:17:16;2.58;;;1.55;;
21330;SDS011;10824;51.632;4.950;2023-06-05T01:19:47;2.10;;;1.23;;
21330;SDS011;10824;51.632;4.950;2023-06-05T01:22:16;2.50;;;1.30;;
21330;SDS011;10824;51.632;4.950;2023-06-05T01:24:43;4.78;;;2.35;;
21330;SDS011;10824;51.632;4.950;2023-06-05T01:27:15;3.58;;;1.63;;
21330;SDS011;10824;51.632;4.950;2023-06-05T01:29:46;2.15;;;1.40;;
21330;SDS011;10824;51.632;4.950;2023-06-05T01:35:21;3.25;;;1.30;;
21330;SDS011;10824;51.632;4.950;2023-06-05T01:37:55;4.78;;;1.50;;
21330;SDS011;10824;51.632;4.950;2023-06-05T01:40:26;1.63;;;1.20;;
21330;SDS011;10824;51.632;4.950;2023-06-05T01:42:54;3.42;;;1.50;;
21330;SDS011;10824;51.632;4.950;2023-06-05T01:45:21;1.92;;;1.60;;
21330;SDS011;10824;51.632;4.950;2023-06-05T01:47:49;1.95;;;1.40;;
21330;SDS011;10824;51.632;4.950;2023-06-05T01:50:17;2.60;;;1.15;;
21330;SDS011;10824;51.632;4.950;2023-06-05T01:52:45;2.35;;;1.38;;
21330;SDS011;10824;51.632;4.950;2023-06-05T01:55:17;2.78;;;1.30;;
21330;SDS011;10824;51.632;4.950;2023-06-05T01:57:47;1.75;;;1.27;;
21330;SDS011;10824;51.632;4.950;2023-06-05T02:00:14;2.63;;;1.30;;
21330;SDS011;10824;51.632;4.950;2023-06-05T02:02:45;3.60;;;1.77;;
21330;SDS011;10824;51.632;4.950;2023-06-05T02:05:15;3.15;;;1.40;;
21330;SDS011;10824;51.632;4.950;2023-06-05T02:07:45;3.83;;;1.48;;
21330;SDS011;10824;51.632;4.950;2023-06-05T02:10:20;3.33;;;1.65;;
21330;SDS011;10824;51.632;4.950;2023-06-05T02:12:48;5.35;;;1.83;;
21330;SDS011;10824;51.632;4.950;2023-06-05T02:15:16;2.05;;;1.90;;
21330;SDS011;10824;51.632;4.950;2023-06-05T02:17:43;2.88;;;1.52;;
21330;SDS011;10824;51.632;4.950;2023-06-05T02:20:24;3.67;;;1.45;;
21330;SDS011;10824;51.632;4.950;2023-06-05T02:22:51;2.50;;;1.75;;
21330;SDS011;10824;51.632;4.950;2023-06-05T02:25:21;3.45;;;1.55;;
21330;SDS011;10824;51.632;4.950;2023-06-05T02:27:52;3.60;;;1.50;;
21330;SDS011;10824;51.632;4.950;2023-06-05T02:30:19;3.13;;;1.42;;
21330;SDS011;10824;51.632;4.950;2023-06-05T02:32:49;4.22;;;1.60;;
21330;SDS011;10824;51.632;4.950;2023-06-05T02:35:24;3.97;;;1.75;;
21330;SDS011;10824;51.632;4.950;2023-06-05T02:37:51;4.82;;;1.80;;
21330;SDS011;10824;51.632;4.950;2023-06-05T02:40:19;5.13;;;1.70;;
21330;SDS011;10824;51.632;4.950;2023-06-05T02:42:46;4.30;;;1.80;;
21330;SDS011;10824;51.632;4.950;2023-06-05T02:45:14;3.88;;;1.73;;
21330;SDS011;10824;51.632;4.950;2023-06-05T02:47:41;7.32;;;1.60;;
21330;SDS011;10824;51.632;4.950;2023-06-05T02:50:08;3.78;;;1.70;;
21330;SDS011;10824;51.632;4.950;2023-06-05T02:52:40;5.53;;;1.98;;
21330;SDS011;10824;51.632;4.950;2023-06-05T02:55:12;3.70;;;1.92;;
21330;SDS011;10824;51.632;4.950;2023-06-05T02:57:41;4.10;;;1.77;;
21330;SDS011;10824;51.632;4.950;2023-06-05T03:00:13;3.58;;;2.17;;
21330;SDS011;10824;51.632;4.950;2023-06-05T03:02:47;3.15;;;2.00;;
21330;SDS011;10824;51.632;4.950;2023-06-05T03:05:21;4.10;;;1.90;;
21330;SDS011;10824;51.632;4.950;2023-06-05T03:07:56;3.75;;;1.50;;
21330;SDS011;10824;51.632;4.950;2023-06-05T03:10:23;4.05;;;1.70;;
21330;SDS011;10824;51.632;4.950;2023-06-05T03:12:51;2.97;;;1.60;;
21330;SDS011;10824;51.632;4.950;2023-06-05T03:15:18;7.78;;;2.13;;
21330;SDS011;10824;51.632;4.950;2023-06-05T03:17:47;2.65;;;1.75;;
21330;SDS011;10824;51.632;4.950;2023-06-05T03:20:18;4.10;;;1.60;;
21330;SDS011;10824;51.632;4.950;2023-06-05T03:22:46;10.02;;;3.60;;
21330;SDS011;10824;51.632;4.950;2023-06-05T03:25:13;3.72;;;2.22;;
21330;SDS011;10824;51.632;4.950;2023-06-05T03:27:43;5.63;;;1.80;;
21330;SDS011;10824;51.632;4.950;2023-06-05T03:30:11;2.78;;;1.52;;
21330;SDS011;10824;51.632;4.950;2023-06-05T03:32:47;4.75;;;1.75;;
21330;SDS011;10824;51.632;4.950;2023-06-05T03:35:15;6.55;;;2.10;;
21330;SDS011;10824;51.632;4.950;2023-06-05T03:37:44;6.55;;;2.50;;
21330;SDS011;10824;51.632;4.950;2023-06-05T03:40:11;3.10;;;1.73;;
21330;SDS011;10824;51.632;4.950;2023-06-05T03:42:40;9.77;;;2.85;;
21330;SDS011;10824;51.632;4.950;2023-06-05T03:45:07;3.67;;;1.55;;
21330;SDS011;10824;51.632;4.950;2023-06-05T03:47:36;5.57;;;2.92;;
21330;SDS011;10824;51.632;4.950;2023-06-05T03:50:07;3.72;;;2.20;;
21330;SDS011;10824;51.632;4.950;2023-06-05T03:52:38;4.38;;;1.92;;
21330;SDS011;10824;51.632;4.950;2023-06-05T03:55:06;3.67;;;2.05;;
21330;SDS011;10824;51.632;4.950;2023-06-05T03:57:35;4.00;;;2.63;;
21330;SDS011;10824;51.632;4.950;2023-06-05T04:00:06;3.75;;;2.13;;
21330;SDS011;10824;51.632;4.950;2023-06-05T04:02:39;3.70;;;2.22;;
21330;SDS011;10824;51.632;4.950;2023-06-05T04:05:11;3.72;;;1.88;;
21330;SDS011;10824;51.632;4.950;2023-06-05T04:07:40;4.78;;;1.70;;
21330;SDS011;10824;51.632;4.950;2023-06-05T04:10:09;5.05;;;1.98;;
21330;SDS011;10824;51.632;4.950;2023-06-05T04:12:36;2.03;;;1.48;;
21330;SDS011;10824;51.632;4.950;2023-06-05T04:15:05;4.43;;;2.40;;
21330;SDS011;10824;51.632;4.950;2023-06-05T04:17:33;5.32;;;2.00;;
21330;SDS011;10824;51.632;4.950;2023-06-05T04:20:01;9.02;;;2.20;;
21330;SDS011;10824;51.632;4.950;2023-06-05T04:22:30;3.72;;;1.77;;
21330;SDS011;10824;51.632;4.950;2023-06-05T04:24:57;5.63;;;2.38;;
21330;SDS011;10824;51.632;4.950;2023-06-05T04:27:24;3.13;;;2.40;;
21330;SDS011;10824;51.632;4.950;2023-06-05T04:29:54;4.28;;;2.28;;
21330;SDS011;10824;51.632;4.950;2023-06-05T04:32:23;8.80;;;2.17;;
21330;SDS011;10824;51.632;4.950;2023-06-05T04:34:50;6.25;;;2.63;;
21330;SDS011;10824;51.632;4.950;2023-06-05T04:37:19;3.25;;;1.80;;
21330;SDS011;10824;51.632;4.950;2023-06-05T04:39:46;5.88;;;2.78;;
21330;SDS011;10824;51.632;4.950;2023-06-05T04:42:13;4.65;;;2.65;;
21330;SDS011;10824;51.632;4.950;2023-06-05T04:44:43;5.57;;;2.63;;
21330;SDS011;10824;51.632;4.950;2023-06-05T04:47:11;4.10;;;2.28;;
21330;SDS011;10824;51.632;4.950;2023-06-05T04:49:39;3.15;;;2.10;;
21330;SDS011;10824;51.632;4.950;2023-06-05T04:52:06;7.10;;;2.45;;
21330;SDS011;10824;51.632;4.950;2023-06-05T04:54:34;5.93;;;2.58;;
21330;SDS011;10824;51.632;4.950;2023-06-05T04:57:02;4.15;;;2.00;;
21330;SDS011;10824;51.632;4.950;2023-06-05T04:59:32;4.97;;;2.40;;
21330;SDS011;10824;51.632;4.950;2023-06-05T05:02:01;5.85;;;2.88;;
21330;SDS011;10824;51.632;4.950;2023-06-05T05:04:30;4.55;;;2.60;;
21330;SDS011;10824;51.632;4.950;2023-06-05T05:06:57;7.18;;;3.05;;
21330;SDS011;10824;51.632;4.950;2023-06-05T05:09:28;5.63;;;2.47;;
21330;SDS011;10824;51.632;4.950;2023-06-05T05:11:58;4.90;;;2.30;;
21330;SDS011;10824;51.632;4.950;2023-06-05T05:14:26;9.43;;;3.33;;
21330;SDS011;10824;51.632;4.950;2023-06-05T05:16:53;5.32;;;2.33;;
21330;SDS011;10824;51.632;4.950;2023-06-05T05:19:22;6.85;;;2.17;;
21330;SDS011;10824;51.632;4.950;2023-06-05T05:21:49;4.57;;;3.13;;
21330;SDS011;10824;51.632;4.950;2023-06-05T05:24:17;4.03;;;1.95;;
21330;SDS011;10824;51.632;4.950;2023-06-05T05:26:44;5.22;;;2.42;;
21330;SDS011;10824;51.632;4.950;2023-06-05T05:29:11;5.20;;;2.80;;
21330;SDS011;10824;51.632;4.950;2023-06-05T05:31:39;5.30;;;2.83;;
21330;SDS011;10824;51.632;4.950;2023-06-05T05:34:06;5.90;;;3.47;;
21330;SDS011;10824;51.632;4.950;2023-06-05T05:36:34;4.85;;;2.47;;
21330;SDS011;10824;51.632;4.950;2023-06-05T05:39:03;7.03;;;2.30;;
21330;SDS011;10824;51.632;4.950;2023-06-05T05:41:31;6.72;;;2.60;;
21330;SDS011;10824;51.632;4.950;2023-06-05T05:43:58;6.43;;;2.03;;
21330;SDS011;10824;51.632;4.950;2023-06-05T05:46:25;5.65;;;2.47;;
21330;SDS011;10824;51.632;4.950;2023-06-05T05:48:53;6.15;;;2.10;;
21330;SDS011;10824;51.632;4.950;2023-06-05T05:51:21;6.28;;;2.60;;
21330;SDS011;10824;51.632;4.950;2023-06-05T05:53:48;4.20;;;2.38;;
21330;SDS011;10824;51.632;4.950;2023-06-05T05:56:16;3.92;;;2.47;;
21330;SDS011;10824;51.632;4.950;2023-06-05T05:58:43;4.57;;;2.60;;
21330;SDS011;10824;51.632;4.950;2023-06-05T06:01:11;11.75;;;3.70;;
21330;SDS011;10824;51.632;4.950;2023-06-05T06:03:38;4.10;;;2.08;;
21330;SDS011;10824;51.632;4.950;2023-06-05T06:06:06;4.28;;;2.47;;
21330;SDS011;10824;51.632;4.950;2023-06-05T06:08:34;3.80;;;2.20;;
21330;SDS011;10824;51.632;4.950;2023-06-05T06:11:01;7.78;;;3.10;;
21330;SDS011;10824;51.632;4.950;2023-06-05T06:13:34;4.70;;;2.60;;
21330;SDS011;10824;51.632;4.950;2023-06-05T06:16:02;6.82;;;3.15;;
21330;SDS011;10824;51.632;4.950;2023-06-05T06:18:31;5.13;;;2.10;;
21330;SDS011;10824;51.632;4.950;2023-06-05T06:20:59;6.57;;;2.55;;
21330;SDS011;10824;51.632;4.950;2023-06-05T06:23:26;5.22;;;2.35;;
21330;SDS011;10824;51.632;4.950;2023-06-05T06:25:53;5.45;;;2.50;;
21330;SDS011;10824;51.632;4.950;2023-06-05T06:28:20;4.50;;;2.58;;
21330;SDS011;10824;51.632;4.950;2023-06-05T06:30:47;5.15;;;2.28;;
21330;SDS011;10824;51.632;4.950;2023-06-05T06:33:15;5.03;;;2.38;;
21330;SDS011;10824;51.632;4.950;2023-06-05T06:35:43;4.78;;;2.30;;
21330;SDS011;10824;51.632;4.950;2023-06-05T06:38:10;7.70;;;2.83;;
21330;SDS011;10824;51.632;4.950;2023-06-05T06:40:37;4.32;;;2.33;;
21330;SDS011;10824;51.632;4.950;2023-06-05T06:43:04;4.57;;;2.00;;
21330;SDS011;10824;51.632;4.950;2023-06-05T06:45:40;4.03;;;1.92;;
21330;SDS011;10824;51.632;4.950;2023-06-05T06:48:07;5.97;;;2.50;;
21330;SDS011;10824;51.632;4.950;2023-06-05T06:50:34;5.05;;;2.22;;
21330;SDS011;10824;51.632;4.950;2023-06-05T06:53:02;4.05;;;2.30;;
21330;SDS011;10824;51.632;4.950;2023-06-05T06:55:29;4.60;;;2.08;;
21330;SDS011;10824;51.632;4.950;2023-06-05T06:57:56;5.68;;;2.47;;
21330;SDS011;10824;51.632;4.950;2023-06-05T07:00:23;5.38;;;2.03;;
21330;SDS011;10824;51.632;4.950;2023-06-05T07:02:51;4.85;;;2.28;;
21330;SDS011;10824;51.632;4.950;2023-06-05T07:05:18;8.13;;;2.65;;
21330;SDS011;10824;51.632;4.950;2023-06-05T07:07:49;6.50;;;2.22;;
21330;SDS011;10824;51.632;4.950;2023-06-05T07:10:18;5.05;;;2.33;;
21330;SDS011;10824;51.632;4.950;2023-06-05T07:12:45;7.57;;;2.72;;
21330;SDS011;10824;51.632;4.950;2023-06-05T07:15:12;5.18;;;2.08;;
21330;SDS011;10824;51.632;4.950;2023-06-05T07:17:39;4.75;;;2.20;;
21330;SDS011;10824;51.632;4.950;2023-06-05T07:20:07;5.68;;;2.42;;
21330;SDS011;10824;51.632;4.950;2023-06-05T07:22:41;4.20;;;2.20;;
21330;SDS011;10824;51.632;4.950;2023-06-05T07:27:38;3.95;;;1.95;;
21330;SDS011;10824;51.632;4.950;2023-06-05T07:30:07;5.28;;;2.05;;
21330;SDS011;10824;51.632;4.950;2023-06-05T07:32:35;7.20;;;1.80;;
21330;SDS011;10824;51.632;4.950;2023-06-05T07:35:02;5.28;;;2.40;;
21330;SDS011;10824;51.632;4.950;2023-06-05T07:37:29;6.15;;;2.45;;
21330;SDS011;10824;51.632;4.950;2023-06-05T07:39:56;4.15;;;2.40;;
21330;SDS011;10824;51.632;4.950;2023-06-05T07:42:25;3.47;;;1.90;;
21330;SDS011;10824;51.632;4.950;2023-06-05T07:44:52;5.55;;;2.35;;
21330;SDS011;10824;51.632;4.950;2023-06-05T07:47:19;7.45;;;1.83;;
21330;SDS011;10824;51.632;4.950;2023-06-05T07:49:57;3.60;;;2.00;;
21330;SDS011;10824;51.632;4.950;2023-06-05T07:52:30;5.93;;;2.15;;
21330;SDS011;10824;51.632;4.950;2023-06-05T07:54:57;7.60;;;2.83;;
21330;SDS011;10824;51.632;4.950;2023-06-05T07:57:25;3.38;;;1.88;;
21330;SDS011;10824;51.632;4.950;2023-06-05T07:59:52;3.15;;;1.70;;
21330;SDS011;10824;51.632;4.950;2023-06-05T08:02:20;9.05;;;2.83;;
21330;SDS011;10824;51.632;4.950;2023-06-05T08:04:47;5.05;;;1.85;;
21330;SDS011;10824;51.632;4.950;2023-06-05T08:07:15;4.18;;;2.17;;
21330;SDS011;10824;51.632;4.950;2023-06-05T08:09:43;4.90;;;2.45;;
21330;SDS011;10824;51.632;4.950;2023-06-05T08:12:11;5.07;;;1.90;;
21330;SDS011;10824;51.632;4.950;2023-06-05T08:14:39;4.00;;;2.15;;
21330;SDS011;10824;51.632;4.950;2023-06-05T08:17:06;3.67;;;1.42;;
21330;SDS011;10824;51.632;4.950;2023-06-05T08:19:34;2.75;;;1.77;;
21330;SDS011;10824;51.632;4.950;2023-06-05T08:22:01;5.15;;;1.90;;
21330;SDS011;10824;51.632;4.950;2023-06-05T08:24:29;3.35;;;2.03;;
21330;SDS011;10824;51.632;4.950;2023-06-05T08:26:57;3.47;;;1.92;;
21330;SDS011;10824;51.632;4.950;2023-06-05T08:29:26;4.57;;;1.90;;
21330;SDS011;10824;51.632;4.950;2023-06-05T08:31:54;3.53;;;1.52;;
21330;SDS011;10824;51.632;4.950;2023-06-05T08:34:22;4.50;;;1.95;;
21330;SDS011;10824;51.632;4.950;2023-06-05T08:36:53;3.97;;;1.90;;
21330;SDS011;10824;51.632;4.950;2023-06-05T08:39:25;4.70;;;1.80;;
21330;SDS011;10824;51.632;4.950;2023-06-05T08:41:55;6.47;;;2.67;;
21330;SDS011;10824;51.632;4.950;2023-06-05T08:44:27;6.50;;;3.30;;
21330;SDS011;10824;51.632;4.950;2023-06-05T08:47:01;6.43;;;2.55;;
21330;SDS011;10824;51.632;4.950;2023-06-05T08:49:29;3.95;;;2.10;;
21330;SDS011;10824;51.632;4.950;2023-06-05T08:52:00;8.05;;;2.75;;
21330;SDS011;10824;51.632;4.950;2023-06-05T08:54:33;8.38;;;2.70;;
21330;SDS011;10824;51.632;4.950;2023-06-05T08:57:08;5.90;;;2.35;;
21330;SDS011;10824;51.632;4.950;2023-06-05T08:59:35;5.78;;;3.10;;
21330;SDS011;10824;51.632;4.950;2023-06-05T09:02:03;4.65;;;2.17;;
21330;SDS011;10824;51.632;4.950;2023-06-05T09:04:31;5.95;;;2.42;;
21330;SDS011;10824;51.632;4.950;2023-06-05T09:06:58;6.03;;;2.22;;
21330;SDS011;10824;51.632;4.950;2023-06-05T09:09:26;7.18;;;2.10;;
21330;SDS011;10824;51.632;4.950;2023-06-05T09:14:30;5.68;;;2.30;;
21330;SDS011;10824;51.632;4.950;2023-06-05T09:16:57;3.85;;;1.80;;
21330;SDS011;10824;51.632;4.950;2023-06-05T09:19:35;5.45;;;2.40;;
21330;SDS011;10824;51.632;4.950;2023-06-05T09:22:03;6.10;;;2.20;;
21330;SDS011;10824;51.632;4.950;2023-06-05T09:24:40;4.22;;;2.08;;
21330;SDS011;10824;51.632;4.950;2023-06-05T09:27:22;2.80;;;1.80;;
21330;SDS011;10824;51.632;4.950;2023-06-05T09:29:51;5.05;;;2.45;;
21330;SDS011;10824;51.632;4.950;2023-06-05T09:32:29;3.78;;;2.08;;
21330;SDS011;10824;51.632;4.950;2023-06-05T09:34:56;8.07;;;2.58;;
21330;SDS011;10824;51.632;4.950;2023-06-05T09:37:33;5.63;;;2.67;;
21330;SDS011;10824;51.632;4.950;2023-06-05T09:40:02;4.63;;;2.67;;
21330;SDS011;10824;51.632;4.950;2023-06-05T09:42:31;5.28;;;2.42;;
21330;SDS011;10824;51.632;4.950;2023-06-05T09:44:59;5.25;;;2.30;;
21330;SDS011;10824;51.632;4.950;2023-06-05T09:47:27;12.40;;;3.03;;
21330;SDS011;10824;51.632;4.950;2023-06-05T09:50:08;7.63;;;2.50;;
21330;SDS011;10824;51.632;4.950;2023-06-05T09:52:48;7.35;;;2.60;;
21330;SDS011;10824;51.632;4.950;2023-06-05T09:55:17;3.45;;;1.90;;
21330;SDS011;10824;51.632;4.950;2023-06-05T09:57:44;6.13;;;2.55;;
21330;SDS011;10824;51.632;4.950;2023-06-05T10:00:13;6.00;;;2.70;;
21330;SDS011;10824;51.632;4.950;2023-06-05T10:05:14;4.95;;;2.60;;
21330;SDS011;10824;51.632;4.950;2023-06-05T10:07:42;5.20;;;2.72;;
21330;SDS011;10824;51.632;4.950;2023-06-05T10:10:09;7.30;;;2.40;;
21330;SDS011;10824;51.632;4.950;2023-06-05T10:12:38;4.35;;;2.38;;
21330;SDS011;10824;51.632;4.950;2023-06-05T10:15:06;4.72;;;2.40;;
21330;SDS011;10824;51.632;4.950;2023-06-05T10:17:36;5.47;;;2.78;;
21330;SDS011;10824;51.632;4.950;2023-06-05T10:20:06;4.10;;;2.50;;
21330;SDS011;10824;51.632;4.950;2023-06-05T10:22:35;9.70;;;2.63;;
21330;SDS011;10824;51.632;4.950;2023-06-05T10:25:04;8.88;;;2.50;;
21330;SDS011;10824;51.632;4.950;2023-06-05T10:31:02;3.42;;;2.17;;
21330;SDS011;10824;51.632;4.950;2023-06-05T10:33:48;11.48;;;3.65;;
21330;SDS011;10824;51.632;4.950;2023-06-05T10:36:47;5.60;;;2.55;;
21330;SDS011;10824;51.632;4.950;2023-06-05T10:39:13;4.65;;;2.10;;
21330;SDS011;10824;51.632;4.950;2023-06-05T10:41:41;4.95;;;3.05;;
21330;SDS011;10824;51.632;4.950;2023-06-05T10:44:08;9.63;;;3.17;;
21330;SDS011;10824;51.632;4.950;2023-06-05T10:46:36;5.22;;;2.88;;
21330;SDS011;10824;51.632;4.950;2023-06-05T10:51:34;9.80;;;2.80;;
21330;SDS011;10824;51.632;4.950;2023-06-05T10:54:04;4.35;;;2.60;;
21330;SDS011;10824;51.632;4.950;2023-06-05T10:56:51;5.18;;;2.60;;
21330;SDS011;10824;51.632;4.950;2023-06-05T10:59:23;3.97;;;2.38;;
21330;SDS011;10824;51.632;4.950;2023-06-05T11:15:09;6.95;;;2.45;;
21330;SDS011;10824;51.632;4.950;2023-06-05T11:17:46;4.53;;;2.17;;
21330;SDS011;10824;51.632;4.950;2023-06-05T11:27:56;4.57;;;2.28;;
21330;SDS011;10824;51.632;4.950;2023-06-05T11:30:29;4.55;;;2.20;;
21330;SDS011;10824;51.632;4.950;2023-06-05T11:33:15;7.70;;;2.47;;
21330;SDS011;10824;51.632;4.950;2023-06-05T11:35:45;4.47;;;1.90;;
21330;SDS011;10824;51.632;4.950;2023-06-05T11:38:15;4.88;;;2.08;;
21330;SDS011;10824;51.632;4.950;2023-06-05T11:40:48;4.20;;;1.75;;
21330;SDS011;10824;51.632;4.950;2023-06-05T11:43:16;7.25;;;2.42;;
21330;SDS011;10824;51.632;4.950;2023-06-05T11:45:53;3.25;;;2.22;;
21330;SDS011;10824;51.632;4.950;2023-06-05T11:48:22;4.75;;;2.97;;
21330;SDS011;10824;51.632;4.950;2023-06-05T11:53:20;3.80;;;2.40;;
21330;SDS011;10824;51.632;4.950;2023-06-05T11:55:48;7.25;;;2.00;;
21330;SDS011;10824;51.632;4.950;2023-06-05T11:58:24;3.70;;;1.67;;
21330;SDS011;10824;51.632;4.950;2023-06-05T12:01:05;3.58;;;2.00;;
21330;SDS011;10824;51.632;4.950;2023-06-05T12:03:45;5.70;;;2.15;;
21330;SDS011;10824;51.632;4.950;2023-06-05T12:06:14;5.82;;;2.05;;
21330;SDS011;10824;51.632;4.950;2023-06-05T12:08:43;5.45;;;2.05;;
21330;SDS011;10824;51.632;4.950;2023-06-05T12:11:20;4.88;;;1.80;;
21330;SDS011;10824;51.632;4.950;2023-06-05T12:13:48;2.10;;;1.48;;
21330;SDS011;10824;51.632;4.950;2023-06-05T12:16:29;1.90;;;1.27;;
21330;SDS011;10824;51.632;4.950;2023-06-05T12:19:01;8.60;;;3.22;;
21330;SDS011;10824;51.632;4.950;2023-06-05T12:21:42;3.55;;;1.80;;
21330;SDS011;10824;51.632;4.950;2023-06-05T12:24:10;6.95;;;2.15;;
21330;SDS011;10824;51.632;4.950;2023-06-05T12:26:51;3.70;;;2.55;;
21330;SDS011;10824;51.632;4.950;2023-06-05T12:29:22;5.38;;;1.98;;
21330;SDS011;10824;51.632;4.950;2023-06-05T12:31:57;5.82;;;2.63;;
21330;SDS011;10824;51.632;4.950;2023-06-05T12:34:43;8.95;;;1.50;;
21330;SDS011;10824;51.632;4.950;2023-06-05T12:37:31;3.38;;;1.70;;
21330;SDS011;10824;51.632;4.950;2023-06-05T12:40:06;2.53;;;1.50;;
21330;SDS011;10824;51.632;4.950;2023-06-05T12:42:38;2.45;;;1.60;;
21330;SDS011;10824;51.632;4.950;2023-06-05T12:45:07;5.18;;;1.85;;
21330;SDS011;10824;51.632;4.950;2023-06-05T12:47:36;4.40;;;1.60;;
21330;SDS011;10824;51.632;4.950;2023-06-05T12:50:04;5.85;;;1.75;;
21330;SDS011;10824;51.632;4.950;2023-06-05T12:52:34;3.15;;;1.63;;
21330;SDS011;10824;51.632;4.950;2023-06-05T12:55:01;3.78;;;1.75;;
21330;SDS011;10824;51.632;4.950;2023-06-05T12:57:29;2.95;;;1.30;;
21330;SDS011;10824;51.632;4.950;2023-06-05T12:59:57;3.10;;;1.52;;
21330;SDS011;10824;51.632;4.950;2023-06-05T13:02:24;2.97;;;1.50;;
21330;SDS011;10824;51.632;4.950;2023-06-05T13:04:52;3.88;;;1.80;;
21330;SDS011;10824;51.632;4.950;2023-06-05T13:07:21;2.45;;;1.63;;
21330;SDS011;10824;51.632;4.950;2023-06-05T13:09:48;5.57;;;1.60;;
21330;SDS011;10824;51.632;4.950;2023-06-05T13:12:18;2.90;;;1.40;;
21330;SDS011;10824;51.632;4.950;2023-06-05T13:14:46;6.03;;;2.05;;
21330;SDS011;10824;51.632;4.950;2023-06-05T13:17:13;3.58;;;1.55;;
21330;SDS011;10824;51.632;4.950;2023-06-05T13:19:48;4.90;;;1.83;;
21330;SDS011;10824;51.632;4.950;2023-06-05T13:22:16;2.80;;;1.48;;
21330;SDS011;10824;51.632;4.950;2023-06-05T13:24:46;5.05;;;1.73;;
21330;SDS011;10824;51.632;4.950;2023-06-05T13:27:13;6.00;;;1.67;;
21330;SDS011;10824;51.632;4.950;2023-06-05T13:29:43;5.30;;;1.35;;
21330;SDS011;10824;51.632;4.950;2023-06-05T13:32:10;4.43;;;1.80;;
21330;SDS011;10824;51.632;4.950;2023-06-05T13:34:37;4.22;;;2.10;;
21330;SDS011;10824;51.632;4.950;2023-06-05T13:37:04;4.60;;;1.55;;
21330;SDS011;10824;51.632;4.950;2023-06-05T13:39:40;3.80;;;2.00;;
21330;SDS011;10824;51.632;4.950;2023-06-05T13:42:10;3.38;;;1.60;;
21330;SDS011;10824;51.632;4.950;2023-06-05T13:44:38;4.38;;;1.50;;
21330;SDS011;10824;51.632;4.950;2023-06-05T13:47:05;2.60;;;2.03;;
21330;SDS011;10824;51.632;4.950;2023-06-05T13:49:35;3.92;;;1.33;;
21330;SDS011;10824;51.632;4.950;2023-06-05T13:52:02;2.60;;;1.52;;
21330;SDS011;10824;51.632;4.950;2023-06-05T13:54:29;4.47;;;1.65;;
21330;SDS011;10824;51.632;4.950;2023-06-05T13:56:56;3.25;;;1.70;;
21330;SDS011;10824;51.632;4.950;2023-06-05T13:59:26;2.13;;;1.40;;
21330;SDS011;10824;51.632;4.950;2023-06-05T14:01:53;3.03;;;1.52;;
21330;SDS011;10824;51.632;4.950;2023-06-05T14:04:20;2.72;;;1.55;;
21330;SDS011;10824;51.632;4.950;2023-06-05T14:06:48;5.40;;;1.55;;
21330;SDS011;10824;51.632;4.950;2023-06-05T14:09:15;4.07;;;1.45;;
21330;SDS011;10824;51.632;4.950;2023-06-05T14:11:42;4.45;;;1.80;;
21330;SDS011;10824;51.632;4.950;2023-06-05T14:14:11;4.18;;;1.40;;
21330;SDS011;10824;51.632;4.950;2023-06-05T14:16:39;3.17;;;1.42;;
21330;SDS011;10824;51.632;4.950;2023-06-05T14:19:06;2.70;;;1.42;;
21330;SDS011;10824;51.632;4.950;2023-06-05T14:21:33;2.17;;;1.20;;
21330;SDS011;10824;51.632;4.950;2023-06-05T14:24:01;2.53;;;1.38;;
21330;SDS011;10824;51.632;4.950;2023-06-05T14:26:29;3.00;;;1.48;;
21330;SDS011;10824;51.632;4.950;2023-06-05T14:28:57;4.03;;;1.60;;
21330;SDS011;10824;51.632;4.950;2023-06-05T14:31:24;1.83;;;1.20;;
21330;SDS011;10824;51.632;4.950;2023-06-05T14:33:54;3.53;;;1.88;;
21330;SDS011;10824;51.632;4.950;2023-06-05T14:36:21;4.05;;;1.30;;
21330;SDS011;10824;51.632;4.950;2023-06-05T14:38:48;3.83;;;1.20;;
21330;SDS011;10824;51.632;4.950;2023-06-05T14:41:15;3.38;;;1.20;;
21330;SDS011;10824;51.632;4.950;2023-06-05T14:43:42;3.17;;;1.02;;
21330;SDS011;10824;51.632;4.950;2023-06-05T14:46:09;3.70;;;1.45;;
21330;SDS011;10824;51.632;4.950;2023-06-05T14:48:37;1.88;;;1.30;;
21330;SDS011;10824;51.632;4.950;2023-06-05T14:51:04;3.88;;;1.63;;
21330;SDS011;10824;51.632;4.950;2023-06-05T14:53:31;2.00;;;1.42;;
21330;SDS011;10824;51.632;4.950;2023-06-05T14:55:58;2.83;;;1.52;;
21330;SDS011;10824;51.632;4.950;2023-06-05T14:58:26;3.15;;;1.55;;
21330;SDS011;10824;51.632;4.950;2023-06-05T15:00:53;4.43;;;1.70;;
21330;SDS011;10824;51.632;4.950;2023-06-05T15:03:24;3.25;;;1.30;;
21330;SDS011;10824;51.632;4.950;2023-06-05T15:05:51;2.92;;;1.20;;
21330;SDS011;10824;51.632;4.950;2023-06-05T15:08:19;2.92;;;1.27;;
21330;SDS011;10824;51.632;4.950;2023-06-05T15:10:49;2.15;;;1.30;;
21330;SDS011;10824;51.632;4.950;2023-06-05T15:13:16;2.92;;;1.55;;
21330;SDS011;10824;51.632;4.950;2023-06-05T15:15:44;2.13;;;1.20;;
21330;SDS011;10824;51.632;4.950;2023-06-05T15:18:11;3.05;;;1.52;;
21330;SDS011;10824;51.632;4.950;2023-06-05T15:20:38;2.42;;;1.45;;
21330;SDS011;10824;51.632;4.950;2023-06-05T15:23:05;2.78;;;1.27;;
21330;SDS011;10824;51.632;4.950;2023-06-05T15:25:41;3.58;;;1.30;;
21330;SDS011;10824;51.632;4.950;2023-06-05T15:28:08;3.30;;;1.20;;
21330;SDS011;10824;51.632;4.950;2023-06-05T15:30:36;3.33;;;1.65;;
21330;SDS011;10824;51.632;4.950;2023-06-05T15:33:03;2.00;;;1.13;;
21330;SDS011;10824;51.632;4.950;2023-06-05T15:35:30;3.60;;;1.35;;
21330;SDS011;10824;51.632;4.950;2023-06-05T15:37:57;4.07;;;1.30;;
21330;SDS011;10824;51.632;4.950;2023-06-05T15:40:24;2.45;;;1.48;;